sensor_id;sensor_type;location;lat;lon;timestamp;temperature;humidity
63094;DHT22;49183;51.380;0.098;2022-08-01T00:01:46;9.20;85.80
63094;DHT22;49183;51.380;0.098;2022-08-01T00:04:47;9.20;85.90
63094;DHT22;49183;51.380;0.098;2022-08-01T00:07:48;9.10;86.00
63094;DHT22;49183;51.380;0.098;2022-08-01T00:10:49;9.00;86.20
63094;DHT22;49183;51.380;0.098;2022-08-01T00:13:50;8.90;86.40
63094;DHT22;49183;51.380;0.098;2022-08-01T00:16:51;8.90;86.60
63094;DHT22;49183;51.380;0.098;2022-08-01T00:19:53;8.90;86.60
63094;DHT22;49183;51.380;0.098;2022-08-01T00:22:54;8.80;86.80
63094;DHT22;49183;51.380;0.098;2022-08-01T00:25:55;8.80;86.80
63094;DHT22;49183;51.380;0.098;2022-08-01T00:28:56;8.80;86.90
63094;DHT22;49183;51.380;0.098;2022-08-01T00:32:17;8.80;86.90
63094;DHT22;49183;51.380;0.098;2022-08-01T00:35:18;8.80;86.90
63094;DHT22;49183;51.380;0.098;2022-08-01T00:38:19;8.60;87.00
63094;DHT22;49183;51.380;0.098;2022-08-01T00:41:20;8.50;87.10
63094;DHT22;49183;51.380;0.098;2022-08-01T00:44:24;8.50;87.30
63094;DHT22;49183;51.380;0.098;2022-08-01T00:47:25;8.60;87.40
63094;DHT22;49183;51.380;0.098;2022-08-01T00:50:27;8.50;87.40
63094;DHT22;49183;51.380;0.098;2022-08-01T00:53:28;8.60;87.50
63094;DHT22;49183;51.380;0.098;2022-08-01T00:56:38;8.60;87.50
63094;DHT22;49183;51.380;0.098;2022-08-01T00:59:40;8.70;87.50
63094;DHT22;49183;51.380;0.098;2022-08-01T01:02:42;8.60;87.50
63094;DHT22;49183;51.380;0.098;2022-08-01T01:12:59;8.40;88.00
63094;DHT22;49183;51.380;0.098;2022-08-01T01:16:00;8.40;88.10
63094;DHT22;49183;51.380;0.098;2022-08-01T01:19:04;8.40;88.10
63094;DHT22;49183;51.380;0.098;2022-08-01T01:32:12;8.20;88.40
63094;DHT22;49183;51.380;0.098;2022-08-01T01:35:24;8.20;88.40
63094;DHT22;49183;51.380;0.098;2022-08-01T01:38:29;8.10;88.40
63094;DHT22;49183;51.380;0.098;2022-08-01T01:41:33;8.00;88.60
63094;DHT22;49183;51.380;0.098;2022-08-01T01:44:37;8.00;88.70
63094;DHT22;49183;51.380;0.098;2022-08-01T01:47:38;8.00;88.80
63094;DHT22;49183;51.380;0.098;2022-08-01T01:50:42;8.10;88.80
63094;DHT22;49183;51.380;0.098;2022-08-01T01:53:44;8.20;88.70
63094;DHT22;49183;51.380;0.098;2022-08-01T01:56:45;8.10;88.70
63094;DHT22;49183;51.380;0.098;2022-08-01T01:59:48;8.10;88.80
63094;DHT22;49183;51.380;0.098;2022-08-01T02:02:52;8.00;88.90
63094;DHT22;49183;51.380;0.098;2022-08-01T02:05:55;7.90;89.00
63094;DHT22;49183;51.380;0.098;2022-08-01T02:08:59;7.90;89.10
63094;DHT22;49183;51.380;0.098;2022-08-01T02:12:03;7.90;89.20
63094;DHT22;49183;51.380;0.098;2022-08-01T02:15:06;7.90;89.20
63094;DHT22;49183;51.380;0.098;2022-08-01T02:18:08;7.90;89.30
63094;DHT22;49183;51.380;0.098;2022-08-01T02:21:13;7.90;89.40
63094;DHT22;49183;51.380;0.098;2022-08-01T02:24:27;8.00;89.20
63094;DHT22;49183;51.380;0.098;2022-08-01T02:27:30;7.90;89.20
63094;DHT22;49183;51.380;0.098;2022-08-01T02:30:36;7.90;89.30
63094;DHT22;49183;51.380;0.098;2022-08-01T02:33:41;7.80;89.40
63094;DHT22;49183;51.380;0.098;2022-08-01T02:36:44;7.80;89.50
63094;DHT22;49183;51.380;0.098;2022-08-01T02:39:51;7.90;89.50
63094;DHT22;49183;51.380;0.098;2022-08-01T02:43:00;7.90;89.50
63094;DHT22;49183;51.380;0.098;2022-08-01T02:46:02;7.90;89.50
63094;DHT22;49183;51.380;0.098;2022-08-01T02:49:07;7.90;89.50
63094;DHT22;49183;51.380;0.098;2022-08-01T02:52:13;8.00;89.50
63094;DHT22;49183;51.380;0.098;2022-08-01T02:55:14;7.90;89.60
63094;DHT22;49183;51.380;0.098;2022-08-01T02:58:18;7.90;89.60
63094;DHT22;49183;51.380;0.098;2022-08-01T03:01:21;7.90;89.70
63094;DHT22;49183;51.380;0.098;2022-08-01T03:04:23;7.90;89.80
63094;DHT22;49183;51.380;0.098;2022-08-01T03:07:26;7.90;89.80
63094;DHT22;49183;51.380;0.098;2022-08-01T03:10:30;7.90;89.70
63094;DHT22;49183;51.380;0.098;2022-08-01T03:13:33;7.90;89.80
63094;DHT22;49183;51.380;0.098;2022-08-01T03:16:36;7.80;89.90
63094;DHT22;49183;51.380;0.098;2022-08-01T03:19:39;7.80;89.90
63094;DHT22;49183;51.380;0.098;2022-08-01T03:22:42;7.80;90.00
63094;DHT22;49183;51.380;0.098;2022-08-01T03:25:47;7.80;90.10
63094;DHT22;49183;51.380;0.098;2022-08-01T03:28:51;7.80;90.10
63094;DHT22;49183;51.380;0.098;2022-08-01T03:31:53;7.80;90.10
63094;DHT22;49183;51.380;0.098;2022-08-01T03:34:54;7.80;90.10
63094;DHT22;49183;51.380;0.098;2022-08-01T03:37:56;7.80;90.20
63094;DHT22;49183;51.380;0.098;2022-08-01T03:41:18;7.80;90.20
63094;DHT22;49183;51.380;0.098;2022-08-01T03:44:23;7.90;90.30
63094;DHT22;49183;51.380;0.098;2022-08-01T03:47:29;7.90;90.20
63094;DHT22;49183;51.380;0.098;2022-08-01T03:50:32;7.90;90.10
63094;DHT22;49183;51.380;0.098;2022-08-01T03:53:34;7.90;90.10
63094;DHT22;49183;51.380;0.098;2022-08-01T03:56:38;7.90;90.20
63094;DHT22;49183;51.380;0.098;2022-08-01T03:59:39;7.90;90.30
63094;DHT22;49183;51.380;0.098;2022-08-01T04:02:41;7.90;90.30
63094;DHT22;49183;51.380;0.098;2022-08-01T04:05:35;7.90;90.30
63094;DHT22;49183;51.380;0.098;2022-08-01T04:08:39;7.90;90.30
63094;DHT22;49183;51.380;0.098;2022-08-01T04:11:49;7.90;90.40
63094;DHT22;49183;51.380;0.098;2022-08-01T04:14:58;7.90;90.40
63094;DHT22;49183;51.380;0.098;2022-08-01T04:17:59;7.90;90.40
63094;DHT22;49183;51.380;0.098;2022-08-01T04:21:00;8.00;90.40
63094;DHT22;49183;51.380;0.098;2022-08-01T04:24:07;8.00;90.40
63094;DHT22;49183;51.380;0.098;2022-08-01T04:27:13;8.00;90.40
63094;DHT22;49183;51.380;0.098;2022-08-01T04:30:36;8.10;90.50
63094;DHT22;49183;51.380;0.098;2022-08-01T04:33:43;8.10;90.40
63094;DHT22;49183;51.380;0.098;2022-08-01T04:36:48;8.10;90.40
63094;DHT22;49183;51.380;0.098;2022-08-01T04:39:51;8.20;90.40
63094;DHT22;49183;51.380;0.098;2022-08-01T04:42:53;8.20;90.40
63094;DHT22;49183;51.380;0.098;2022-08-01T04:45:55;8.20;90.50
63094;DHT22;49183;51.380;0.098;2022-08-01T04:48:57;8.20;90.50
63094;DHT22;49183;51.380;0.098;2022-08-01T04:51:59;8.20;90.50
63094;DHT22;49183;51.380;0.098;2022-08-01T04:55:06;8.20;90.60
63094;DHT22;49183;51.380;0.098;2022-08-01T04:58:10;8.30;90.60
63094;DHT22;49183;51.380;0.098;2022-08-01T05:01:12;8.30;90.60
63094;DHT22;49183;51.380;0.098;2022-08-01T05:04:13;8.30;90.60
63094;DHT22;49183;51.380;0.098;2022-08-01T05:07:14;8.40;90.60
63094;DHT22;49183;51.380;0.098;2022-08-01T05:10:15;8.40;90.60
63094;DHT22;49183;51.380;0.098;2022-08-01T05:13:16;8.60;90.60
63094;DHT22;49183;51.380;0.098;2022-08-01T05:16:17;8.70;90.60
63094;DHT22;49183;51.380;0.098;2022-08-01T05:19:18;8.80;90.60
63094;DHT22;49183;51.380;0.098;2022-08-01T05:22:19;8.80;90.40
63094;DHT22;49183;51.380;0.098;2022-08-01T05:25:20;8.90;90.40
63094;DHT22;49183;51.380;0.098;2022-08-01T05:28:42;8.90;90.50
63094;DHT22;49183;51.380;0.098;2022-08-01T05:31:43;9.00;90.60
63094;DHT22;49183;51.380;0.098;2022-08-01T05:34:44;9.20;90.60
63094;DHT22;49183;51.380;0.098;2022-08-01T05:37:45;9.30;90.60
63094;DHT22;49183;51.380;0.098;2022-08-01T05:40:46;9.40;90.50
63094;DHT22;49183;51.380;0.098;2022-08-01T05:43:47;9.60;90.50
63094;DHT22;49183;51.380;0.098;2022-08-01T05:46:48;9.80;90.50
63094;DHT22;49183;51.380;0.098;2022-08-01T05:49:49;9.90;90.40
63094;DHT22;49183;51.380;0.098;2022-08-01T05:52:50;10.00;90.40
63094;DHT22;49183;51.380;0.098;2022-08-01T05:55:51;10.10;90.40
63094;DHT22;49183;51.380;0.098;2022-08-01T05:58:52;10.20;90.40
63094;DHT22;49183;51.380;0.098;2022-08-01T06:01:53;10.30;90.40
63094;DHT22;49183;51.380;0.098;2022-08-01T06:04:55;10.40;90.40
63094;DHT22;49183;51.380;0.098;2022-08-01T06:07:59;10.60;90.30
63094;DHT22;49183;51.380;0.098;2022-08-01T06:11:00;10.70;90.20
63094;DHT22;49183;51.380;0.098;2022-08-01T06:14:01;10.80;90.20
63094;DHT22;49183;51.380;0.098;2022-08-01T06:17:02;11.00;90.10
63094;DHT22;49183;51.380;0.098;2022-08-01T06:20:05;11.20;90.00
63094;DHT22;49183;51.380;0.098;2022-08-01T06:23:06;11.30;89.90
63094;DHT22;49183;51.380;0.098;2022-08-01T06:26:19;11.50;89.70
63094;DHT22;49183;51.380;0.098;2022-08-01T06:29:20;11.60;89.50
63094;DHT22;49183;51.380;0.098;2022-08-01T06:32:21;11.70;89.40
63094;DHT22;49183;51.380;0.098;2022-08-01T06:35:23;11.80;89.30
63094;DHT22;49183;51.380;0.098;2022-08-01T06:38:24;11.90;89.10
63094;DHT22;49183;51.380;0.098;2022-08-01T06:41:25;12.00;89.10
63094;DHT22;49183;51.380;0.098;2022-08-01T06:44:26;12.00;88.90
63094;DHT22;49183;51.380;0.098;2022-08-01T06:47:27;12.10;88.80
63094;DHT22;49183;51.380;0.098;2022-08-01T06:50:28;12.20;88.70
63094;DHT22;49183;51.380;0.098;2022-08-01T06:53:30;12.20;88.60
63094;DHT22;49183;51.380;0.098;2022-08-01T06:56:31;12.30;88.50
63094;DHT22;49183;51.380;0.098;2022-08-01T06:59:32;12.30;88.50
63094;DHT22;49183;51.380;0.098;2022-08-01T07:02:40;12.30;88.40
63094;DHT22;49183;51.380;0.098;2022-08-01T07:05:41;12.30;88.40
63094;DHT22;49183;51.380;0.098;2022-08-01T07:08:42;12.40;88.40
63094;DHT22;49183;51.380;0.098;2022-08-01T07:11:47;12.80;88.50
63094;DHT22;49183;51.380;0.098;2022-08-01T07:14:48;13.10;88.20
63094;DHT22;49183;51.380;0.098;2022-08-01T07:17:49;13.50;87.70
63094;DHT22;49183;51.380;0.098;2022-08-01T07:20:50;14.00;87.00
63094;DHT22;49183;51.380;0.098;2022-08-01T07:23:51;14.50;86.00
63094;DHT22;49183;51.380;0.098;2022-08-01T07:26:59;15.10;85.10
63094;DHT22;49183;51.380;0.098;2022-08-01T07:30:10;15.60;84.10
63094;DHT22;49183;51.380;0.098;2022-08-01T07:33:12;16.10;82.50
63094;DHT22;49183;51.380;0.098;2022-08-01T07:36:33;16.40;81.30
63094;DHT22;49183;51.380;0.098;2022-08-01T07:39:34;16.80;80.30
63094;DHT22;49183;51.380;0.098;2022-08-01T07:42:35;17.10;79.30
63094;DHT22;49183;51.380;0.098;2022-08-01T07:45:37;17.30;77.60
63094;DHT22;49183;51.380;0.098;2022-08-01T07:48:38;17.40;77.30
63094;DHT22;49183;51.380;0.098;2022-08-01T07:51:39;17.60;76.90
63094;DHT22;49183;51.380;0.098;2022-08-01T07:54:50;17.80;75.80
63094;DHT22;49183;51.380;0.098;2022-08-01T07:57:51;18.10;74.30
63094;DHT22;49183;51.380;0.098;2022-08-01T08:00:53;18.20;73.90
63094;DHT22;49183;51.380;0.098;2022-08-01T08:03:54;18.40;73.50
63094;DHT22;49183;51.380;0.098;2022-08-01T08:06:55;18.80;72.90
63094;DHT22;49183;51.380;0.098;2022-08-01T08:09:56;19.10;72.10
63094;DHT22;49183;51.380;0.098;2022-08-01T08:12:57;19.30;70.00
63094;DHT22;49183;51.380;0.098;2022-08-01T08:15:59;19.40;68.80
63094;DHT22;49183;51.380;0.098;2022-08-01T08:19:00;19.40;68.60
63094;DHT22;49183;51.380;0.098;2022-08-01T08:22:01;19.60;68.20
63094;DHT22;49183;51.380;0.098;2022-08-01T08:25:02;19.80;67.70
63094;DHT22;49183;51.380;0.098;2022-08-01T08:28:03;20.00;67.00
63094;DHT22;49183;51.380;0.098;2022-08-01T08:31:05;20.30;66.00
63094;DHT22;49183;51.380;0.098;2022-08-01T08:34:27;20.50;63.70
63094;DHT22;49183;51.380;0.098;2022-08-01T08:37:28;20.70;63.60
63094;DHT22;49183;51.380;0.098;2022-08-01T08:40:36;20.90;62.90
63094;DHT22;49183;51.380;0.098;2022-08-01T08:43:37;21.30;62.00
63094;DHT22;49183;51.380;0.098;2022-08-01T08:46:45;21.50;60.90
63094;DHT22;49183;51.380;0.098;2022-08-01T08:49:46;21.70;59.90
63094;DHT22;49183;51.380;0.098;2022-08-01T08:52:48;21.80;59.40
63094;DHT22;49183;51.380;0.098;2022-08-01T08:55:53;21.90;57.50
63094;DHT22;49183;51.380;0.098;2022-08-01T08:59:28;21.90;55.80
63094;DHT22;49183;51.380;0.098;2022-08-01T09:02:32;22.00;54.90
63094;DHT22;49183;51.380;0.098;2022-08-01T09:05:34;22.00;55.50
63094;DHT22;49183;51.380;0.098;2022-08-01T09:08:38;22.00;56.20
63094;DHT22;49183;51.380;0.098;2022-08-01T09:11:39;22.20;56.20
63094;DHT22;49183;51.380;0.098;2022-08-01T09:14:47;22.30;56.20
63094;DHT22;49183;51.380;0.098;2022-08-01T09:17:49;22.40;55.90
63094;DHT22;49183;51.380;0.098;2022-08-01T09:20:51;22.40;55.70
63094;DHT22;49183;51.380;0.098;2022-08-01T09:23:55;22.30;56.00
63094;DHT22;49183;51.380;0.098;2022-08-01T09:27:00;22.40;56.30
63094;DHT22;49183;51.380;0.098;2022-08-01T09:30:17;22.40;56.50
63094;DHT22;49183;51.380;0.098;2022-08-01T09:33:59;22.40;55.20
63094;DHT22;49183;51.380;0.098;2022-08-01T09:37:03;22.40;55.20
63094;DHT22;49183;51.380;0.098;2022-08-01T09:40:12;22.50;54.70
63094;DHT22;49183;51.380;0.098;2022-08-01T09:43:18;22.60;53.70
63094;DHT22;49183;51.380;0.098;2022-08-01T09:46:19;22.70;52.90
63094;DHT22;49183;51.380;0.098;2022-08-01T09:49:28;22.70;52.10
63094;DHT22;49183;51.380;0.098;2022-08-01T09:52:53;22.60;50.90
63094;DHT22;49183;51.380;0.098;2022-08-01T09:55:54;22.50;50.50
63094;DHT22;49183;51.380;0.098;2022-08-01T09:59:13;22.40;50.70
63094;DHT22;49183;51.380;0.098;2022-08-01T10:03:22;22.40;51.00
63094;DHT22;49183;51.380;0.098;2022-08-01T10:06:33;22.40;50.70
63094;DHT22;49183;51.380;0.098;2022-08-01T10:09:53;22.40;50.10
63094;DHT22;49183;51.380;0.098;2022-08-01T10:13:04;22.40;50.50
63094;DHT22;49183;51.380;0.098;2022-08-01T10:16:09;22.60;50.80
63094;DHT22;49183;51.380;0.098;2022-08-01T10:19:27;22.70;50.40
63094;DHT22;49183;51.380;0.098;2022-08-01T10:22:34;22.80;50.20
63094;DHT22;49183;51.380;0.098;2022-08-01T10:25:43;22.80;49.70
63094;DHT22;49183;51.380;0.098;2022-08-01T10:28:51;22.90;50.10
63094;DHT22;49183;51.380;0.098;2022-08-01T10:32:23;23.00;50.50
63094;DHT22;49183;51.380;0.098;2022-08-01T10:35:28;22.90;49.80
63094;DHT22;49183;51.380;0.098;2022-08-01T10:38:36;23.00;50.80
63094;DHT22;49183;51.380;0.098;2022-08-01T10:41:42;23.10;50.70
63094;DHT22;49183;51.380;0.098;2022-08-01T10:44:55;23.20;49.50
63094;DHT22;49183;51.380;0.098;2022-08-01T10:48:22;23.40;49.30
63094;DHT22;49183;51.380;0.098;2022-08-01T10:51:38;23.40;48.60
63094;DHT22;49183;51.380;0.098;2022-08-01T10:57:54;23.50;49.00
63094;DHT22;49183;51.380;0.098;2022-08-01T11:01:26;23.60;49.00
63094;DHT22;49183;51.380;0.098;2022-08-01T11:07:47;23.80;48.60
63094;DHT22;49183;51.380;0.098;2022-08-01T11:11:02;23.80;49.20
63094;DHT22;49183;51.380;0.098;2022-08-01T11:14:05;23.80;48.10
63094;DHT22;49183;51.380;0.098;2022-08-01T11:17:35;24.00;48.30
63094;DHT22;49183;51.380;0.098;2022-08-01T11:20:55;24.10;47.40
63094;DHT22;49183;51.380;0.098;2022-08-01T11:34:54;24.10;48.00
63094;DHT22;49183;51.380;0.098;2022-08-01T11:37:55;24.30;47.40
63094;DHT22;49183;51.380;0.098;2022-08-01T11:41:32;24.50;47.30
63094;DHT22;49183;51.380;0.098;2022-08-01T11:44:48;24.70;46.40
63094;DHT22;49183;51.380;0.098;2022-08-01T11:47:51;24.80;46.30
63094;DHT22;49183;51.380;0.098;2022-08-01T11:50:53;24.80;46.00
63094;DHT22;49183;51.380;0.098;2022-08-01T11:54:00;24.80;45.50
63094;DHT22;49183;51.380;0.098;2022-08-01T12:00:28;25.00;45.30
63094;DHT22;49183;51.380;0.098;2022-08-01T12:03:33;24.70;45.40
63094;DHT22;49183;51.380;0.098;2022-08-01T12:06:34;24.50;45.60
63094;DHT22;49183;51.380;0.098;2022-08-01T12:09:36;24.50;46.30
63094;DHT22;49183;51.380;0.098;2022-08-01T12:12:43;24.60;45.90
63094;DHT22;49183;51.380;0.098;2022-08-01T12:15:45;24.50;45.90
63094;DHT22;49183;51.380;0.098;2022-08-01T12:18:46;24.60;46.10
63094;DHT22;49183;51.380;0.098;2022-08-01T12:22:13;24.80;45.80
63094;DHT22;49183;51.380;0.098;2022-08-01T12:25:16;25.20;44.90
63094;DHT22;49183;51.380;0.098;2022-08-01T12:28:17;25.40;44.90
63094;DHT22;49183;51.380;0.098;2022-08-01T12:31:12;25.70;44.60
63094;DHT22;49183;51.380;0.098;2022-08-01T12:34:25;25.80;43.60
63094;DHT22;49183;51.380;0.098;2022-08-01T12:37:27;25.80;42.50
63094;DHT22;49183;51.380;0.098;2022-08-01T12:40:31;25.80;42.50
63094;DHT22;49183;51.380;0.098;2022-08-01T12:43:31;25.60;43.10
63094;DHT22;49183;51.380;0.098;2022-08-01T12:46:32;25.70;43.00
63094;DHT22;49183;51.380;0.098;2022-08-01T12:49:37;25.80;42.70
63094;DHT22;49183;51.380;0.098;2022-08-01T12:52:39;25.90;43.60
63094;DHT22;49183;51.380;0.098;2022-08-01T12:55:48;26.00;43.50
63094;DHT22;49183;51.380;0.098;2022-08-01T12:58:49;26.20;42.90
63094;DHT22;49183;51.380;0.098;2022-08-01T13:01:54;26.30;42.50
63094;DHT22;49183;51.380;0.098;2022-08-01T13:04:55;26.30;42.60
63094;DHT22;49183;51.380;0.098;2022-08-01T13:07:56;26.30;42.80
63094;DHT22;49183;51.380;0.098;2022-08-01T13:11:06;26.40;42.90
63094;DHT22;49183;51.380;0.098;2022-08-01T13:14:27;26.60;42.30
63094;DHT22;49183;51.380;0.098;2022-08-01T13:17:33;26.80;41.50
63094;DHT22;49183;51.380;0.098;2022-08-01T13:20:34;26.80;41.40
63094;DHT22;49183;51.380;0.098;2022-08-01T13:23:40;26.60;41.90
63094;DHT22;49183;51.380;0.098;2022-08-01T13:29:53;26.30;41.90
63094;DHT22;49183;51.380;0.098;2022-08-01T13:32:59;26.30;43.00
63094;DHT22;49183;51.380;0.098;2022-08-01T13:35:59;26.30;42.60
63094;DHT22;49183;51.380;0.098;2022-08-01T13:39:01;26.30;42.10
63094;DHT22;49183;51.380;0.098;2022-08-01T13:42:19;26.30;42.10
63094;DHT22;49183;51.380;0.098;2022-08-01T13:45:13;26.40;42.90
63094;DHT22;49183;51.380;0.098;2022-08-01T13:48:14;26.60;42.40
63094;DHT22;49183;51.380;0.098;2022-08-01T13:51:15;26.50;42.70
63094;DHT22;49183;51.380;0.098;2022-08-01T13:54:17;26.30;42.90
63094;DHT22;49183;51.380;0.098;2022-08-01T13:57:18;26.20;43.20
63094;DHT22;49183;51.380;0.098;2022-08-01T14:00:22;26.10;43.10
63094;DHT22;49183;51.380;0.098;2022-08-01T14:03:23;25.90;43.40
63094;DHT22;49183;51.380;0.098;2022-08-01T14:06:32;25.90;44.30
63094;DHT22;49183;51.380;0.098;2022-08-01T14:09:33;26.00;44.00
63094;DHT22;49183;51.380;0.098;2022-08-01T14:12:58;26.00;43.60
63094;DHT22;49183;51.380;0.098;2022-08-01T14:15:59;26.00;43.80
63094;DHT22;49183;51.380;0.098;2022-08-01T14:19:01;26.20;43.80
63094;DHT22;49183;51.380;0.098;2022-08-01T14:22:03;26.30;43.60
63094;DHT22;49183;51.380;0.098;2022-08-01T14:25:04;26.30;43.40
63094;DHT22;49183;51.380;0.098;2022-08-01T14:28:26;26.30;43.30
63094;DHT22;49183;51.380;0.098;2022-08-01T14:31:27;26.20;42.30
63094;DHT22;49183;51.380;0.098;2022-08-01T14:34:28;26.10;42.90
63094;DHT22;49183;51.380;0.098;2022-08-01T14:37:30;26.20;43.20
63094;DHT22;49183;51.380;0.098;2022-08-01T14:40:31;26.50;42.20
63094;DHT22;49183;51.380;0.098;2022-08-01T14:43:31;26.60;42.00
63094;DHT22;49183;51.380;0.098;2022-08-01T14:46:32;26.60;41.90
63094;DHT22;49183;51.380;0.098;2022-08-01T14:49:44;26.80;41.90
63094;DHT22;49183;51.380;0.098;2022-08-01T14:52:45;26.80;41.60
63094;DHT22;49183;51.380;0.098;2022-08-01T14:55:47;26.90;41.40
63094;DHT22;49183;51.380;0.098;2022-08-01T14:58:47;26.80;42.10
63094;DHT22;49183;51.380;0.098;2022-08-01T15:01:48;26.80;42.80
63094;DHT22;49183;51.380;0.098;2022-08-01T15:04:50;26.70;43.00
63094;DHT22;49183;51.380;0.098;2022-08-01T15:07:51;26.40;43.00
63094;DHT22;49183;51.380;0.098;2022-08-01T15:10:52;26.30;43.50
63094;DHT22;49183;51.380;0.098;2022-08-01T15:13:54;26.20;43.70
63094;DHT22;49183;51.380;0.098;2022-08-01T15:17:25;26.10;44.10
63094;DHT22;49183;51.380;0.098;2022-08-01T15:20:27;25.90;43.10
63094;DHT22;49183;51.380;0.098;2022-08-01T15:23:27;25.80;43.50
63094;DHT22;49183;51.380;0.098;2022-08-01T15:26:28;26.00;44.00
63094;DHT22;49183;51.380;0.098;2022-08-01T15:29:30;26.00;43.90
63094;DHT22;49183;51.380;0.098;2022-08-01T15:32:30;25.90;43.80
63094;DHT22;49183;51.380;0.098;2022-08-01T15:35:32;25.80;44.50
63094;DHT22;49183;51.380;0.098;2022-08-01T15:38:33;25.80;44.90
63094;DHT22;49183;51.380;0.098;2022-08-01T15:41:34;26.20;44.70
63094;DHT22;49183;51.380;0.098;2022-08-01T15:44:35;26.40;44.30
63094;DHT22;49183;51.380;0.098;2022-08-01T15:47:36;26.50;43.80
63094;DHT22;49183;51.380;0.098;2022-08-01T15:50:37;26.50;43.70
63094;DHT22;49183;51.380;0.098;2022-08-01T15:53:38;26.70;43.20
63094;DHT22;49183;51.380;0.098;2022-08-01T15:56:39;26.70;41.90
63094;DHT22;49183;51.380;0.098;2022-08-01T15:59:41;26.50;42.50
63094;DHT22;49183;51.380;0.098;2022-08-01T16:02:50;26.50;42.30
63094;DHT22;49183;51.380;0.098;2022-08-01T16:05:52;26.50;42.70
63094;DHT22;49183;51.380;0.098;2022-08-01T16:08:53;26.70;42.80
63094;DHT22;49183;51.380;0.098;2022-08-01T16:11:54;26.70;43.20
63094;DHT22;49183;51.380;0.098;2022-08-01T16:14:56;26.80;43.10
63094;DHT22;49183;51.380;0.098;2022-08-01T16:17:57;26.70;43.00
63094;DHT22;49183;51.380;0.098;2022-08-01T16:20:59;26.60;43.60
63094;DHT22;49183;51.380;0.098;2022-08-01T16:24:00;26.50;43.70
63094;DHT22;49183;51.380;0.098;2022-08-01T16:27:02;26.30;43.30
63094;DHT22;49183;51.380;0.098;2022-08-01T16:30:03;26.20;43.60
63094;DHT22;49183;51.380;0.098;2022-08-01T16:33:05;26.10;43.60
63094;DHT22;49183;51.380;0.098;2022-08-01T16:36:26;26.00;43.90
63094;DHT22;49183;51.380;0.098;2022-08-01T16:39:27;25.80;44.00
63094;DHT22;49183;51.380;0.098;2022-08-01T16:42:27;25.70;44.30
63094;DHT22;49183;51.380;0.098;2022-08-01T16:45:29;25.60;44.10
63094;DHT22;49183;51.380;0.098;2022-08-01T16:48:30;25.50;44.30
63094;DHT22;49183;51.380;0.098;2022-08-01T16:51:31;25.40;44.80
63094;DHT22;49183;51.380;0.098;2022-08-01T16:54:34;25.30;45.00
63094;DHT22;49183;51.380;0.098;2022-08-01T16:57:35;25.30;45.20
63094;DHT22;49183;51.380;0.098;2022-08-01T17:00:36;25.20;45.90
63094;DHT22;49183;51.380;0.098;2022-08-01T17:03:43;25.10;46.00
63094;DHT22;49183;51.380;0.098;2022-08-01T17:06:48;24.90;45.90
63094;DHT22;49183;51.380;0.098;2022-08-01T17:09:49;24.80;46.10
63094;DHT22;49183;51.380;0.098;2022-08-01T17:12:50;24.70;46.50
63094;DHT22;49183;51.380;0.098;2022-08-01T17:15:51;24.60;47.00
63094;DHT22;49183;51.380;0.098;2022-08-01T17:18:52;24.40;47.40
63094;DHT22;49183;51.380;0.098;2022-08-01T17:21:53;24.30;47.70
63094;DHT22;49183;51.380;0.098;2022-08-01T17:24:54;24.30;47.70
63094;DHT22;49183;51.380;0.098;2022-08-01T17:28:02;24.20;47.70
63094;DHT22;49183;51.380;0.098;2022-08-01T17:31:03;24.20;48.00
63094;DHT22;49183;51.380;0.098;2022-08-01T17:34:04;24.30;48.10
63094;DHT22;49183;51.380;0.098;2022-08-01T17:37:05;24.40;47.90
63094;DHT22;49183;51.380;0.098;2022-08-01T17:40:06;24.50;47.90
63094;DHT22;49183;51.380;0.098;2022-08-01T17:43:26;24.60;47.80
63094;DHT22;49183;51.380;0.098;2022-08-01T17:46:27;24.50;47.70
63094;DHT22;49183;51.380;0.098;2022-08-01T17:49:28;24.40;48.10
63094;DHT22;49183;51.380;0.098;2022-08-01T17:52:41;24.30;48.50
63094;DHT22;49183;51.380;0.098;2022-08-01T17:55:42;24.20;48.70
63094;DHT22;49183;51.380;0.098;2022-08-01T17:58:44;24.10;49.00
63094;DHT22;49183;51.380;0.098;2022-08-01T18:01:45;24.00;49.30
63094;DHT22;49183;51.380;0.098;2022-08-01T18:04:46;23.80;49.80
63094;DHT22;49183;51.380;0.098;2022-08-01T18:07:47;23.70;50.20
63094;DHT22;49183;51.380;0.098;2022-08-01T18:10:49;23.50;50.90
63094;DHT22;49183;51.380;0.098;2022-08-01T18:13:50;23.40;51.90
63094;DHT22;49183;51.380;0.098;2022-08-01T18:16:51;23.30;52.20
63094;DHT22;49183;51.380;0.098;2022-08-01T18:19:55;23.10;53.20
63094;DHT22;49183;51.380;0.098;2022-08-01T18:22:58;22.90;54.10
63094;DHT22;49183;51.380;0.098;2022-08-01T18:26:03;22.80;55.30
63094;DHT22;49183;51.380;0.098;2022-08-01T18:29:08;22.50;56.80
63094;DHT22;49183;51.380;0.098;2022-08-01T18:32:31;22.30;58.20
63094;DHT22;49183;51.380;0.098;2022-08-01T18:35:33;21.90;59.60
63094;DHT22;49183;51.380;0.098;2022-08-01T18:38:40;21.80;60.90
63094;DHT22;49183;51.380;0.098;2022-08-01T18:41:44;21.50;62.10
63094;DHT22;49183;51.380;0.098;2022-08-01T18:44:45;21.40;62.70
63094;DHT22;49183;51.380;0.098;2022-08-01T18:47:46;21.20;63.90
63094;DHT22;49183;51.380;0.098;2022-08-01T18:50:48;20.90;65.40
63094;DHT22;49183;51.380;0.098;2022-08-01T18:53:49;20.70;66.80
63094;DHT22;49183;51.380;0.098;2022-08-01T18:56:51;20.50;67.90
63094;DHT22;49183;51.380;0.098;2022-08-01T18:59:52;20.10;69.30
63094;DHT22;49183;51.380;0.098;2022-08-01T19:02:53;19.80;70.60
63094;DHT22;49183;51.380;0.098;2022-08-01T19:05:54;19.50;72.30
63094;DHT22;49183;51.380;0.098;2022-08-01T19:08:55;19.20;73.40
63094;DHT22;49183;51.380;0.098;2022-08-01T19:11:56;18.90;74.40
63094;DHT22;49183;51.380;0.098;2022-08-01T19:14:57;18.80;75.30
63094;DHT22;49183;51.380;0.098;2022-08-01T19:17:58;18.60;76.20
63094;DHT22;49183;51.380;0.098;2022-08-01T19:20:59;18.40;76.80
63094;DHT22;49183;51.380;0.098;2022-08-01T19:24:00;18.30;77.70
63094;DHT22;49183;51.380;0.098;2022-08-01T19:27:10;18.10;78.10
63094;DHT22;49183;51.380;0.098;2022-08-01T19:30:15;18.00;78.80
63094;DHT22;49183;51.380;0.098;2022-08-01T19:33:18;17.90;79.70
63094;DHT22;49183;51.380;0.098;2022-08-01T19:36:19;17.80;80.00
63094;DHT22;49183;51.380;0.098;2022-08-01T19:39:23;17.80;80.40
63094;DHT22;49183;51.380;0.098;2022-08-01T19:42:25;17.70;80.60
63094;DHT22;49183;51.380;0.098;2022-08-01T19:45:29;17.70;80.90
63094;DHT22;49183;51.380;0.098;2022-08-01T19:48:35;17.70;81.20
63094;DHT22;49183;51.380;0.098;2022-08-01T19:51:51;17.70;81.70
63094;DHT22;49183;51.380;0.098;2022-08-01T19:54:55;17.60;81.90
63094;DHT22;49183;51.380;0.098;2022-08-01T19:57:57;17.60;82.50
63094;DHT22;49183;51.380;0.098;2022-08-01T20:01:14;17.50;82.70
63094;DHT22;49183;51.380;0.098;2022-08-01T20:04:16;17.40;82.90
63094;DHT22;49183;51.380;0.098;2022-08-01T20:07:17;17.40;83.20
63094;DHT22;49183;51.380;0.098;2022-08-01T20:10:21;17.30;83.40
63094;DHT22;49183;51.380;0.098;2022-08-01T20:13:23;17.30;83.90